sensor_id;sensor_type;location;lat;lon;timestamp;P1;durP1;ratioP1;P2;durP2;ratioP2
21771;SDS011;11047;47.904;8.110;2022-08-19T00:01:19;11.38;;;10.25;;
21771;SDS011;11047;47.904;8.110;2022-08-19T00:03:47;12.60;;;10.60;;
21771;SDS011;11047;47.904;8.110;2022-08-19T00:06:14;12.70;;;11.40;;
21771;SDS011;11047;47.904;8.110;2022-08-19T00:08:41;12.75;;;11.55;;
21771;SDS011;11047;47.904;8.110;2022-08-19T00:11:09;14.52;;;13.02;;
21771;SDS011;11047;47.904;8.110;2022-08-19T00:13:38;13.35;;;12.10;;
21771;SDS011;11047;47.904;8.110;2022-08-19T00:16:06;14.32;;;12.93;;
21771;SDS011;11047;47.904;8.110;2022-08-19T00:18:33;14.68;;;12.88;;
21771;SDS011;11047;47.904;8.110;2022-08-19T00:21:00;14.45;;;12.20;;
21771;SDS011;11047;47.904;8.110;2022-08-19T00:23:28;14.50;;;13.00;;
21771;SDS011;11047;47.904;8.110;2022-08-19T00:25:55;12.88;;;11.60;;
21771;SDS011;11047;47.904;8.110;2022-08-19T00:28:22;13.57;;;12.20;;
21771;SDS011;11047;47.904;8.110;2022-08-19T00:30:50;14.27;;;12.77;;
21771;SDS011;11047;47.904;8.110;2022-08-19T00:33:18;15.25;;;13.10;;
21771;SDS011;11047;47.904;8.110;2022-08-19T00:35:45;16.15;;;13.65;;
21771;SDS011;11047;47.904;8.110;2022-08-19T00:38:12;15.10;;;13.60;;
21771;SDS011;11047;47.904;8.110;2022-08-19T00:40:40;15.93;;;14.30;;
21771;SDS011;11047;47.904;8.110;2022-08-19T00:43:11;13.95;;;12.52;;
21771;SDS011;11047;47.904;8.110;2022-08-19T00:45:39;15.85;;;14.23;;
21771;SDS011;11047;47.904;8.110;2022-08-19T00:48:10;18.75;;;15.40;;
21771;SDS011;11047;47.904;8.110;2022-08-19T00:50:38;16.05;;;14.45;;
21771;SDS011;11047;47.904;8.110;2022-08-19T00:53:08;16.42;;;14.05;;
21771;SDS011;11047;47.904;8.110;2022-08-19T00:55:36;17.77;;;15.98;;
21771;SDS011;11047;47.904;8.110;2022-08-19T00:58:06;17.70;;;14.10;;
21771;SDS011;11047;47.904;8.110;2022-08-19T01:00:35;16.50;;;14.80;;
21771;SDS011;11047;47.904;8.110;2022-08-19T01:03:03;17.65;;;15.85;;
21771;SDS011;11047;47.904;8.110;2022-08-19T01:05:33;17.02;;;15.23;;
21771;SDS011;11047;47.904;8.110;2022-08-19T01:08:02;18.05;;;16.23;;
21771;SDS011;11047;47.904;8.110;2022-08-19T01:10:31;19.77;;;15.93;;
21771;SDS011;11047;47.904;8.110;2022-08-19T01:13:01;20.65;;;17.02;;
21771;SDS011;11047;47.904;8.110;2022-08-19T01:15:30;21.00;;;16.35;;
21771;SDS011;11047;47.904;8.110;2022-08-19T01:17:59;19.73;;;17.20;;
21771;SDS011;11047;47.904;8.110;2022-08-19T01:20:30;21.17;;;17.35;;
21771;SDS011;11047;47.904;8.110;2022-08-19T01:23:00;19.00;;;16.55;;
21771;SDS011;11047;47.904;8.110;2022-08-19T01:25:28;21.33;;;17.70;;
21771;SDS011;11047;47.904;8.110;2022-08-19T01:27:57;21.73;;;18.42;;
21771;SDS011;11047;47.904;8.110;2022-08-19T01:30:26;22.98;;;20.00;;
21771;SDS011;11047;47.904;8.110;2022-08-19T01:32:55;23.85;;;19.33;;
21771;SDS011;11047;47.904;8.110;2022-08-19T01:35:24;24.30;;;21.70;;
21771;SDS011;11047;47.904;8.110;2022-08-19T01:37:55;25.58;;;20.85;;
21771;SDS011;11047;47.904;8.110;2022-08-19T01:40:26;23.77;;;21.23;;
21771;SDS011;11047;47.904;8.110;2022-08-19T01:42:55;28.10;;;22.77;;
21771;SDS011;11047;47.904;8.110;2022-08-19T01:45:24;26.80;;;22.75;;
21771;SDS011;11047;47.904;8.110;2022-08-19T01:47:53;27.52;;;22.15;;
21771;SDS011;11047;47.904;8.110;2022-08-19T01:50:20;28.27;;;24.38;;
21771;SDS011;11047;47.904;8.110;2022-08-19T01:52:47;28.45;;;23.75;;
21771;SDS011;11047;47.904;8.110;2022-08-19T01:55:17;34.53;;;26.27;;
21771;SDS011;11047;47.904;8.110;2022-08-19T01:57:48;33.97;;;26.98;;
21771;SDS011;11047;47.904;8.110;2022-08-19T02:00:19;33.53;;;26.85;;
21771;SDS011;11047;47.904;8.110;2022-08-19T02:02:46;45.33;;;27.13;;
21771;SDS011;11047;47.904;8.110;2022-08-19T02:05:13;33.95;;;27.15;;
21771;SDS011;11047;47.904;8.110;2022-08-19T02:07:45;34.20;;;26.30;;
21771;SDS011;11047;47.904;8.110;2022-08-19T02:10:15;33.28;;;25.83;;
21771;SDS011;11047;47.904;8.110;2022-08-19T02:12:44;37.45;;;26.83;;
21771;SDS011;11047;47.904;8.110;2022-08-19T02:15:13;52.35;;;30.40;;
21771;SDS011;11047;47.904;8.110;2022-08-19T02:17:40;34.75;;;26.63;;
21771;SDS011;11047;47.904;8.110;2022-08-19T02:20:07;34.75;;;27.33;;
21771;SDS011;11047;47.904;8.110;2022-08-19T02:22:35;31.83;;;26.80;;
21771;SDS011;11047;47.904;8.110;2022-08-19T02:25:02;36.47;;;27.00;;
21771;SDS011;11047;47.904;8.110;2022-08-19T02:27:30;32.10;;;26.48;;
21771;SDS011;11047;47.904;8.110;2022-08-19T02:29:58;39.88;;;28.58;;
21771;SDS011;11047;47.904;8.110;2022-08-19T02:32:27;33.53;;;26.63;;
21771;SDS011;11047;47.904;8.110;2022-08-19T02:34:55;37.28;;;27.60;;
21771;SDS011;11047;47.904;8.110;2022-08-19T02:37:22;34.72;;;26.95;;
21771;SDS011;11047;47.904;8.110;2022-08-19T02:40:07;52.50;;;30.55;;
21771;SDS011;11047;47.904;8.110;2022-08-19T02:42:34;35.00;;;27.70;;
21771;SDS011;11047;47.904;8.110;2022-08-19T02:45:01;33.90;;;26.55;;
21771;SDS011;11047;47.904;8.110;2022-08-19T02:47:32;35.83;;;28.30;;
21771;SDS011;11047;47.904;8.110;2022-08-19T02:50:00;40.50;;;28.08;;
21771;SDS011;11047;47.904;8.110;2022-08-19T02:52:28;34.47;;;27.27;;
21771;SDS011;11047;47.904;8.110;2022-08-19T02:54:55;36.97;;;28.20;;
21771;SDS011;11047;47.904;8.110;2022-08-19T02:57:22;45.70;;;29.50;;
21771;SDS011;11047;47.904;8.110;2022-08-19T02:59:49;54.67;;;29.25;;
21771;SDS011;11047;47.904;8.110;2022-08-19T03:02:16;64.03;;;30.70;;
21771;SDS011;11047;47.904;8.110;2022-08-19T03:04:45;149.65;;;32.97;;
21771;SDS011;11047;47.904;8.110;2022-08-19T03:07:12;174.82;;;34.40;;
21771;SDS011;11047;47.904;8.110;2022-08-19T03:09:39;109.95;;;32.90;;
21771;SDS011;11047;47.904;8.110;2022-08-19T03:12:07;49.70;;;28.23;;
21771;SDS011;11047;47.904;8.110;2022-08-19T03:14:35;44.13;;;29.40;;
21771;SDS011;11047;47.904;8.110;2022-08-19T03:17:02;42.90;;;29.30;;
21771;SDS011;11047;47.904;8.110;2022-08-19T03:19:30;39.05;;;27.98;;
21771;SDS011;11047;47.904;8.110;2022-08-19T03:21:59;70.25;;;29.83;;
21771;SDS011;11047;47.904;8.110;2022-08-19T03:24:26;86.95;;;29.73;;
21771;SDS011;11047;47.904;8.110;2022-08-19T03:26:54;49.47;;;28.05;;
21771;SDS011;11047;47.904;8.110;2022-08-19T03:29:22;119.32;;;31.92;;
21771;SDS011;11047;47.904;8.110;2022-08-19T03:31:50;63.50;;;30.77;;
21771;SDS011;11047;47.904;8.110;2022-08-19T03:34:18;41.50;;;28.98;;
21771;SDS011;11047;47.904;8.110;2022-08-19T03:36:46;35.75;;;28.83;;
21771;SDS011;11047;47.904;8.110;2022-08-19T03:39:15;42.80;;;30.50;;
21771;SDS011;11047;47.904;8.110;2022-08-19T03:41:44;40.75;;;30.40;;
21771;SDS011;11047;47.904;8.110;2022-08-19T03:44:12;51.22;;;31.05;;
21771;SDS011;11047;47.904;8.110;2022-08-19T03:46:39;43.03;;;29.55;;
21771;SDS011;11047;47.904;8.110;2022-08-19T03:49:06;39.45;;;29.10;;
21771;SDS011;11047;47.904;8.110;2022-08-19T03:51:34;67.30;;;32.88;;
21771;SDS011;11047;47.904;8.110;2022-08-19T03:54:03;46.53;;;30.13;;
21771;SDS011;11047;47.904;8.110;2022-08-19T03:56:34;38.88;;;29.63;;
21771;SDS011;11047;47.904;8.110;2022-08-19T03:59:03;49.53;;;31.05;;
21771;SDS011;11047;47.904;8.110;2022-08-19T04:01:32;39.58;;;29.95;;
21771;SDS011;11047;47.904;8.110;2022-08-19T04:03:59;40.08;;;30.23;;
21771;SDS011;11047;47.904;8.110;2022-08-19T04:06:27;44.55;;;32.13;;
21771;SDS011;11047;47.904;8.110;2022-08-19T04:08:56;38.67;;;29.90;;
21771;SDS011;11047;47.904;8.110;2022-08-19T04:11:25;40.88;;;30.42;;
21771;SDS011;11047;47.904;8.110;2022-08-19T04:13:55;49.55;;;31.30;;
21771;SDS011;11047;47.904;8.110;2022-08-19T04:16:23;41.40;;;30.27;;
21771;SDS011;11047;47.904;8.110;2022-08-19T04:18:53;54.97;;;34.08;;
21771;SDS011;11047;47.904;8.110;2022-08-19T04:21:21;43.65;;;31.77;;
21771;SDS011;11047;47.904;8.110;2022-08-19T04:23:49;44.65;;;31.65;;
21771;SDS011;11047;47.904;8.110;2022-08-19T04:26:19;50.30;;;34.25;;
21771;SDS011;11047;47.904;8.110;2022-08-19T04:28:49;43.35;;;31.80;;
21771;SDS011;11047;47.904;8.110;2022-08-19T04:31:18;45.45;;;32.53;;
21771;SDS011;11047;47.904;8.110;2022-08-19T04:33:47;42.28;;;30.67;;
21771;SDS011;11047;47.904;8.110;2022-08-19T04:36:17;45.97;;;32.05;;
21771;SDS011;11047;47.904;8.110;2022-08-19T04:38:45;46.13;;;31.88;;
21771;SDS011;11047;47.904;8.110;2022-08-19T04:41:13;46.63;;;31.52;;
21771;SDS011;11047;47.904;8.110;2022-08-19T04:43:57;39.17;;;30.15;;
21771;SDS011;11047;47.904;8.110;2022-08-19T04:46:25;44.40;;;33.00;;
21771;SDS011;11047;47.904;8.110;2022-08-19T04:48:54;42.53;;;30.63;;
21771;SDS011;11047;47.904;8.110;2022-08-19T04:51:22;42.08;;;30.42;;
21771;SDS011;11047;47.904;8.110;2022-08-19T04:53:49;41.45;;;29.48;;
21771;SDS011;11047;47.904;8.110;2022-08-19T04:56:17;43.45;;;31.02;;
21771;SDS011;11047;47.904;8.110;2022-08-19T04:58:45;45.65;;;32.63;;
21771;SDS011;11047;47.904;8.110;2022-08-19T05:01:13;41.38;;;30.40;;
21771;SDS011;11047;47.904;8.110;2022-08-19T05:03:44;40.85;;;30.17;;
21771;SDS011;11047;47.904;8.110;2022-08-19T05:06:12;41.05;;;29.85;;
21771;SDS011;11047;47.904;8.110;2022-08-19T05:08:41;42.10;;;30.88;;
21771;SDS011;11047;47.904;8.110;2022-08-19T05:11:14;41.40;;;29.85;;
21771;SDS011;11047;47.904;8.110;2022-08-19T05:13:42;41.85;;;30.00;;
21771;SDS011;11047;47.904;8.110;2022-08-19T05:16:11;38.28;;;27.75;;
21771;SDS011;11047;47.904;8.110;2022-08-19T05:18:39;38.00;;;29.25;;
21771;SDS011;11047;47.904;8.110;2022-08-19T05:21:25;40.92;;;28.90;;
21771;SDS011;11047;47.904;8.110;2022-08-19T05:24:10;35.38;;;27.48;;
21771;SDS011;11047;47.904;8.110;2022-08-19T05:26:40;38.40;;;28.23;;
21771;SDS011;11047;47.904;8.110;2022-08-19T05:29:12;47.42;;;30.83;;
21771;SDS011;11047;47.904;8.110;2022-08-19T05:31:40;40.97;;;30.90;;
21771;SDS011;11047;47.904;8.110;2022-08-19T05:34:07;46.83;;;31.58;;
21771;SDS011;11047;47.904;8.110;2022-08-19T05:36:36;42.58;;;31.65;;
21771;SDS011;11047;47.904;8.110;2022-08-19T05:39:05;44.13;;;29.45;;
21771;SDS011;11047;47.904;8.110;2022-08-19T05:41:33;44.20;;;32.72;;
21771;SDS011;11047;47.904;8.110;2022-08-19T05:44:01;40.58;;;30.42;;
21771;SDS011;11047;47.904;8.110;2022-08-19T05:46:34;38.50;;;28.27;;
21771;SDS011;11047;47.904;8.110;2022-08-19T05:49:02;36.30;;;28.67;;
21771;SDS011;11047;47.904;8.110;2022-08-19T05:51:30;35.22;;;26.67;;
21771;SDS011;11047;47.904;8.110;2022-08-19T05:54:00;36.10;;;27.83;;
21771;SDS011;11047;47.904;8.110;2022-08-19T05:56:28;39.53;;;28.45;;
21771;SDS011;11047;47.904;8.110;2022-08-19T05:58:56;40.35;;;28.80;;
21771;SDS011;11047;47.904;8.110;2022-08-19T06:01:24;40.08;;;29.98;;
21771;SDS011;11047;47.904;8.110;2022-08-19T06:03:52;43.60;;;31.23;;
21771;SDS011;11047;47.904;8.110;2022-08-19T06:06:19;39.55;;;29.58;;
21771;SDS011;11047;47.904;8.110;2022-08-19T06:08:46;40.10;;;29.65;;
21771;SDS011;11047;47.904;8.110;2022-08-19T06:11:17;40.25;;;29.77;;
21771;SDS011;11047;47.904;8.110;2022-08-19T06:13:46;38.28;;;28.48;;
21771;SDS011;11047;47.904;8.110;2022-08-19T06:16:15;41.22;;;31.27;;
21771;SDS011;11047;47.904;8.110;2022-08-19T06:18:47;39.55;;;29.70;;
21771;SDS011;11047;47.904;8.110;2022-08-19T06:21:16;39.22;;;29.38;;
21771;SDS011;11047;47.904;8.110;2022-08-19T06:23:43;38.80;;;29.10;;
21771;SDS011;11047;47.904;8.110;2022-08-19T06:26:12;37.33;;;28.77;;
21771;SDS011;11047;47.904;8.110;2022-08-19T06:28:40;43.63;;;32.88;;
21771;SDS011;11047;47.904;8.110;2022-08-19T06:31:11;42.85;;;33.92;;
21771;SDS011;11047;47.904;8.110;2022-08-19T06:33:39;41.00;;;30.50;;
21771;SDS011;11047;47.904;8.110;2022-08-19T06:36:07;44.75;;;31.70;;
21771;SDS011;11047;47.904;8.110;2022-08-19T06:38:34;42.10;;;31.50;;
21771;SDS011;11047;47.904;8.110;2022-08-19T06:41:01;43.67;;;31.63;;
21771;SDS011;11047;47.904;8.110;2022-08-19T06:43:29;48.00;;;33.30;;
21771;SDS011;11047;47.904;8.110;2022-08-19T06:45:58;45.97;;;31.90;;
21771;SDS011;11047;47.904;8.110;2022-08-19T06:48:26;48.05;;;33.28;;
21771;SDS011;11047;47.904;8.110;2022-08-19T06:50:52;47.63;;;33.22;;
21771;SDS011;11047;47.904;8.110;2022-08-19T06:53:19;49.60;;;34.22;;
21771;SDS011;11047;47.904;8.110;2022-08-19T06:55:46;44.97;;;33.03;;
21771;SDS011;11047;47.904;8.110;2022-08-19T06:58:15;51.20;;;35.97;;
21771;SDS011;11047;47.904;8.110;2022-08-19T07:00:42;49.92;;;33.72;;
21771;SDS011;11047;47.904;8.110;2022-08-19T07:03:11;49.20;;;34.58;;
21771;SDS011;11047;47.904;8.110;2022-08-19T07:05:38;47.33;;;33.60;;
21771;SDS011;11047;47.904;8.110;2022-08-19T07:08:06;57.53;;;38.10;;
21771;SDS011;11047;47.904;8.110;2022-08-19T07:10:34;55.25;;;37.95;;
21771;SDS011;11047;47.904;8.110;2022-08-19T07:13:02;47.80;;;34.00;;
21771;SDS011;11047;47.904;8.110;2022-08-19T07:15:29;52.08;;;37.88;;
21771;SDS011;11047;47.904;8.110;2022-08-19T07:17:56;57.70;;;38.92;;
21771;SDS011;11047;47.904;8.110;2022-08-19T07:20:24;59.28;;;38.70;;
21771;SDS011;11047;47.904;8.110;2022-08-19T07:22:51;73.75;;;53.03;;
21771;SDS011;11047;47.904;8.110;2022-08-19T07:25:18;76.20;;;56.05;;
21771;SDS011;11047;47.904;8.110;2022-08-19T07:27:48;65.03;;;43.58;;
21771;SDS011;11047;47.904;8.110;2022-08-19T07:30:15;58.65;;;41.90;;
21771;SDS011;11047;47.904;8.110;2022-08-19T07:32:42;65.82;;;42.92;;
21771;SDS011;11047;47.904;8.110;2022-08-19T07:35:09;72.65;;;45.40;;
21771;SDS011;11047;47.904;8.110;2022-08-19T07:37:37;62.90;;;43.70;;
21771;SDS011;11047;47.904;8.110;2022-08-19T07:40:09;62.75;;;42.40;;
21771;SDS011;11047;47.904;8.110;2022-08-19T07:42:36;69.78;;;44.83;;
21771;SDS011;11047;47.904;8.110;2022-08-19T07:45:04;61.45;;;43.08;;
21771;SDS011;11047;47.904;8.110;2022-08-19T07:47:31;67.03;;;43.33;;
21771;SDS011;11047;47.904;8.110;2022-08-19T07:49:58;66.32;;;43.75;;
21771;SDS011;11047;47.904;8.110;2022-08-19T07:52:25;70.07;;;45.88;;
21771;SDS011;11047;47.904;8.110;2022-08-19T07:54:54;66.05;;;45.50;;
21771;SDS011;11047;47.904;8.110;2022-08-19T07:57:21;62.75;;;44.55;;
21771;SDS011;11047;47.904;8.110;2022-08-19T07:59:48;61.65;;;44.08;;
21771;SDS011;11047;47.904;8.110;2022-08-19T08:02:16;65.82;;;44.60;;
21771;SDS011;11047;47.904;8.110;2022-08-19T08:04:43;62.60;;;42.10;;
21771;SDS011;11047;47.904;8.110;2022-08-19T08:07:27;64.72;;;43.95;;
21771;SDS011;11047;47.904;8.110;2022-08-19T08:10:13;63.67;;;43.17;;
21771;SDS011;11047;47.904;8.110;2022-08-19T08:12:40;63.88;;;42.80;;
21771;SDS011;11047;47.904;8.110;2022-08-19T08:15:08;61.42;;;42.03;;
21771;SDS011;11047;47.904;8.110;2022-08-19T08:17:36;57.17;;;39.33;;
21771;SDS011;11047;47.904;8.110;2022-08-19T08:20:03;59.30;;;41.00;;
21771;SDS011;11047;47.904;8.110;2022-08-19T08:22:32;60.00;;;42.28;;
21771;SDS011;11047;47.904;8.110;2022-08-19T08:25:20;58.38;;;42.35;;
21771;SDS011;11047;47.904;8.110;2022-08-19T08:27:48;54.38;;;40.05;;
21771;SDS011;11047;47.904;8.110;2022-08-19T08:30:16;62.15;;;42.25;;
21771;SDS011;11047;47.904;8.110;2022-08-19T08:32:45;55.88;;;40.55;;
21771;SDS011;11047;47.904;8.110;2022-08-19T08:35:13;54.85;;;39.00;;
21771;SDS011;11047;47.904;8.110;2022-08-19T08:37:42;58.08;;;40.50;;
21771;SDS011;11047;47.904;8.110;2022-08-19T08:40:16;52.05;;;39.80;;
21771;SDS011;11047;47.904;8.110;2022-08-19T08:42:51;57.67;;;40.13;;
21771;SDS011;11047;47.904;8.110;2022-08-19T08:45:25;49.90;;;38.00;;
21771;SDS011;11047;47.904;8.110;2022-08-19T08:47:55;57.10;;;39.13;;
21771;SDS011;11047;47.904;8.110;2022-08-19T08:50:25;54.08;;;39.10;;
21771;SDS011;11047;47.904;8.110;2022-08-19T08:53:00;57.80;;;41.35;;
21771;SDS011;11047;47.904;8.110;2022-08-19T08:55:31;55.58;;;41.10;;
21771;SDS011;11047;47.904;8.110;2022-08-19T08:57:59;55.13;;;40.70;;
21771;SDS011;11047;47.904;8.110;2022-08-19T09:00:30;54.33;;;40.83;;
21771;SDS011;11047;47.904;8.110;2022-08-19T09:02:59;57.63;;;41.47;;
21771;SDS011;11047;47.904;8.110;2022-08-19T09:05:30;57.35;;;41.97;;
21771;SDS011;11047;47.904;8.110;2022-08-19T09:08:08;57.13;;;41.05;;
21771;SDS011;11047;47.904;8.110;2022-08-19T09:10:44;57.72;;;41.00;;
21771;SDS011;11047;47.904;8.110;2022-08-19T09:13:17;53.57;;;40.47;;
21771;SDS011;11047;47.904;8.110;2022-08-19T09:15:51;54.65;;;39.63;;
21771;SDS011;11047;47.904;8.110;2022-08-19T09:18:21;56.08;;;41.38;;
21771;SDS011;11047;47.904;8.110;2022-08-19T09:20:48;49.97;;;37.47;;
21771;SDS011;11047;47.904;8.110;2022-08-19T09:23:15;57.17;;;40.13;;
21771;SDS011;11047;47.904;8.110;2022-08-19T09:25:43;49.58;;;38.08;;
21771;SDS011;11047;47.904;8.110;2022-08-19T09:28:10;56.65;;;38.70;;
21771;SDS011;11047;47.904;8.110;2022-08-19T09:30:38;49.80;;;38.80;;
21771;SDS011;11047;47.904;8.110;2022-08-19T09:33:06;51.78;;;40.95;;
21771;SDS011;11047;47.904;8.110;2022-08-19T09:35:33;51.83;;;41.20;;
21771;SDS011;11047;47.904;8.110;2022-08-19T09:38:01;52.42;;;40.92;;
21771;SDS011;11047;47.904;8.110;2022-08-19T09:40:28;54.92;;;39.63;;
21771;SDS011;11047;47.904;8.110;2022-08-19T09:42:57;48.50;;;39.05;;
21771;SDS011;11047;47.904;8.110;2022-08-19T09:45:27;49.65;;;39.40;;
21771;SDS011;11047;47.904;8.110;2022-08-19T09:47:54;48.90;;;36.45;;
21771;SDS011;11047;47.904;8.110;2022-08-19T09:50:23;49.58;;;36.53;;
21771;SDS011;11047;47.904;8.110;2022-08-19T09:52:50;47.28;;;37.10;;
21771;SDS011;11047;47.904;8.110;2022-08-19T09:55:19;45.97;;;36.15;;
21771;SDS011;11047;47.904;8.110;2022-08-19T09:57:45;42.38;;;35.05;;
21771;SDS011;11047;47.904;8.110;2022-08-19T10:00:14;45.25;;;34.17;;
21771;SDS011;11047;47.904;8.110;2022-08-19T10:02:41;39.97;;;33.90;;
21771;SDS011;11047;47.904;8.110;2022-08-19T10:05:08;40.15;;;33.08;;
21771;SDS011;11047;47.904;8.110;2022-08-19T10:07:52;43.88;;;34.15;;
21771;SDS011;11047;47.904;8.110;2022-08-19T10:10:19;43.08;;;35.83;;
21771;SDS011;11047;47.904;8.110;2022-08-19T10:12:47;44.13;;;34.05;;
21771;SDS011;11047;47.904;8.110;2022-08-19T10:15:16;38.38;;;32.72;;
21771;SDS011;11047;47.904;8.110;2022-08-19T10:17:46;40.83;;;33.80;;
21771;SDS011;11047;47.904;8.110;2022-08-19T10:20:13;44.58;;;36.58;;
21771;SDS011;11047;47.904;8.110;2022-08-19T10:22:41;43.33;;;36.28;;
21771;SDS011;11047;47.904;8.110;2022-08-19T10:27:41;47.70;;;38.33;;
21771;SDS011;11047;47.904;8.110;2022-08-19T10:30:10;48.67;;;38.58;;
21771;SDS011;11047;47.904;8.110;2022-08-19T10:32:39;44.00;;;38.13;;
21771;SDS011;11047;47.904;8.110;2022-08-19T10:35:06;55.20;;;44.22;;
21771;SDS011;11047;47.904;8.110;2022-08-19T10:37:34;49.63;;;40.50;;
21771;SDS011;11047;47.904;8.110;2022-08-19T10:40:04;46.00;;;38.50;;
21771;SDS011;11047;47.904;8.110;2022-08-19T10:42:32;50.00;;;39.15;;
21771;SDS011;11047;47.904;8.110;2022-08-19T10:45:00;51.35;;;40.78;;
21771;SDS011;11047;47.904;8.110;2022-08-19T10:47:27;45.85;;;38.15;;
21771;SDS011;11047;47.904;8.110;2022-08-19T10:49:56;50.50;;;40.47;;
21771;SDS011;11047;47.904;8.110;2022-08-19T10:52:40;47.88;;;38.17;;
21771;SDS011;11047;47.904;8.110;2022-08-19T10:55:08;47.22;;;38.65;;
21771;SDS011;11047;47.904;8.110;2022-08-19T10:57:53;50.00;;;40.38;;
21771;SDS011;11047;47.904;8.110;2022-08-19T11:00:20;49.78;;;39.70;;
21771;SDS011;11047;47.904;8.110;2022-08-19T11:02:48;48.10;;;39.13;;
21771;SDS011;11047;47.904;8.110;2022-08-19T11:05:16;47.20;;;38.13;;
21771;SDS011;11047;47.904;8.110;2022-08-19T11:07:44;48.13;;;39.13;;
21771;SDS011;11047;47.904;8.110;2022-08-19T11:10:13;47.72;;;39.67;;
21771;SDS011;11047;47.904;8.110;2022-08-19T11:12:43;45.70;;;39.10;;
21771;SDS011;11047;47.904;8.110;2022-08-19T11:15:12;48.40;;;40.03;;
21771;SDS011;11047;47.904;8.110;2022-08-19T11:17:39;47.58;;;39.85;;
21771;SDS011;11047;47.904;8.110;2022-08-19T11:20:08;48.28;;;41.28;;
21771;SDS011;11047;47.904;8.110;2022-08-19T11:22:38;47.80;;;40.70;;
21771;SDS011;11047;47.904;8.110;2022-08-19T11:25:06;48.70;;;43.45;;
21771;SDS011;11047;47.904;8.110;2022-08-19T11:27:36;61.28;;;50.35;;
21771;SDS011;11047;47.904;8.110;2022-08-19T11:30:07;50.90;;;40.42;;
21771;SDS011;11047;47.904;8.110;2022-08-19T11:32:35;44.58;;;37.95;;
21771;SDS011;11047;47.904;8.110;2022-08-19T11:35:02;44.78;;;39.50;;
21771;SDS011;11047;47.904;8.110;2022-08-19T11:37:29;47.45;;;37.42;;
21771;SDS011;11047;47.904;8.110;2022-08-19T11:39:59;45.53;;;38.17;;
21771;SDS011;11047;47.904;8.110;2022-08-19T11:42:26;40.97;;;36.45;;
21771;SDS011;11047;47.904;8.110;2022-08-19T11:45:10;40.35;;;35.97;;
21771;SDS011;11047;47.904;8.110;2022-08-19T11:47:38;42.92;;;37.90;;
21771;SDS011;11047;47.904;8.110;2022-08-19T11:50:13;42.63;;;37.95;;
21771;SDS011;11047;47.904;8.110;2022-08-19T11:52:40;47.70;;;38.80;;
21771;SDS011;11047;47.904;8.110;2022-08-19T11:55:10;45.17;;;37.70;;
21771;SDS011;11047;47.904;8.110;2022-08-19T11:57:37;43.65;;;37.72;;
21771;SDS011;11047;47.904;8.110;2022-08-19T12:00:06;43.75;;;37.97;;
21771;SDS011;11047;47.904;8.110;2022-08-19T12:02:33;46.10;;;38.95;;
21771;SDS011;11047;47.904;8.110;2022-08-19T12:05:00;47.42;;;39.88;;
21771;SDS011;11047;47.904;8.110;2022-08-19T12:07:28;49.10;;;41.75;;
21771;SDS011;11047;47.904;8.110;2022-08-19T12:09:58;52.80;;;42.65;;
21771;SDS011;11047;47.904;8.110;2022-08-19T12:12:28;54.03;;;42.58;;
21771;SDS011;11047;47.904;8.110;2022-08-19T12:14:56;51.13;;;42.60;;
21771;SDS011;11047;47.904;8.110;2022-08-19T12:17:23;52.15;;;44.63;;
21771;SDS011;11047;47.904;8.110;2022-08-19T12:19:51;48.67;;;41.55;;
21771;SDS011;11047;47.904;8.110;2022-08-19T12:22:18;53.03;;;41.90;;
21771;SDS011;11047;47.904;8.110;2022-08-19T12:24:46;48.83;;;40.58;;
21771;SDS011;11047;47.904;8.110;2022-08-19T12:27:15;49.30;;;40.28;;
21771;SDS011;11047;47.904;8.110;2022-08-19T12:29:43;47.75;;;38.72;;
21771;SDS011;11047;47.904;8.110;2022-08-19T12:32:10;51.13;;;38.65;;
21771;SDS011;11047;47.904;8.110;2022-08-19T12:34:44;44.17;;;37.88;;
21771;SDS011;11047;47.904;8.110;2022-08-19T12:37:12;51.70;;;38.28;;
21771;SDS011;11047;47.904;8.110;2022-08-19T12:39:40;47.83;;;38.90;;
21771;SDS011;11047;47.904;8.110;2022-08-19T12:42:08;48.72;;;40.78;;
21771;SDS011;11047;47.904;8.110;2022-08-19T12:44:35;47.20;;;40.25;;
21771;SDS011;11047;47.904;8.110;2022-08-19T12:47:05;47.65;;;39.15;;
21771;SDS011;11047;47.904;8.110;2022-08-19T12:49:33;43.35;;;37.08;;
21771;SDS011;11047;47.904;8.110;2022-08-19T12:52:02;46.33;;;36.25;;
21771;SDS011;11047;47.904;8.110;2022-08-19T12:54:29;39.30;;;35.05;;
21771;SDS011;11047;47.904;8.110;2022-08-19T12:56:56;40.28;;;34.70;;
21771;SDS011;11047;47.904;8.110;2022-08-19T12:59:25;40.70;;;33.67;;
21771;SDS011;11047;47.904;8.110;2022-08-19T13:01:52;34.58;;;29.75;;
21771;SDS011;11047;47.904;8.110;2022-08-19T13:04:21;35.72;;;31.60;;
21771;SDS011;11047;47.904;8.110;2022-08-19T13:06:48;34.67;;;30.98;;
21771;SDS011;11047;47.904;8.110;2022-08-19T13:12:07;31.67;;;28.23;;
21771;SDS011;11047;47.904;8.110;2022-08-19T13:14:37;32.80;;;28.88;;
21771;SDS011;11047;47.904;8.110;2022-08-19T13:17:05;31.35;;;28.00;;
21771;SDS011;11047;47.904;8.110;2022-08-19T13:19:35;30.33;;;26.02;;
21771;SDS011;11047;47.904;8.110;2022-08-19T13:22:02;31.15;;;27.83;;
21771;SDS011;11047;47.904;8.110;2022-08-19T13:24:29;35.90;;;28.75;;
21771;SDS011;11047;47.904;8.110;2022-08-19T13:26:56;28.58;;;25.65;;
21771;SDS011;11047;47.904;8.110;2022-08-19T13:29:23;30.35;;;27.17;;
21771;SDS011;11047;47.904;8.110;2022-08-19T13:34:53;31.03;;;26.53;;
21771;SDS011;11047;47.904;8.110;2022-08-19T13:37:20;42.80;;;37.05;;
21771;SDS011;11047;47.904;8.110;2022-08-19T13:40:06;28.95;;;25.98;;
21771;SDS011;11047;47.904;8.110;2022-08-19T13:42:36;27.15;;;24.25;;
21771;SDS011;11047;47.904;8.110;2022-08-19T13:45:03;27.73;;;24.95;;
21771;SDS011;11047;47.904;8.110;2022-08-19T13:47:31;26.80;;;24.00;;
21771;SDS011;11047;47.904;8.110;2022-08-19T13:50:07;26.35;;;23.73;;
21771;SDS011;11047;47.904;8.110;2022-08-19T13:52:34;27.33;;;24.52;;
21771;SDS011;11047;47.904;8.110;2022-08-19T13:55:02;24.45;;;22.05;;
21771;SDS011;11047;47.904;8.110;2022-08-19T13:57:29;25.55;;;23.05;;
21771;SDS011;11047;47.904;8.110;2022-08-19T13:59:56;24.48;;;21.90;;
21771;SDS011;11047;47.904;8.110;2022-08-19T14:02:23;24.75;;;22.15;;
21771;SDS011;11047;47.904;8.110;2022-08-19T14:04:51;24.80;;;22.48;;
21771;SDS011;11047;47.904;8.110;2022-08-19T14:07:19;25.05;;;22.48;;
21771;SDS011;11047;47.904;8.110;2022-08-19T14:09:48;23.63;;;21.23;;
21771;SDS011;11047;47.904;8.110;2022-08-19T14:12:18;23.83;;;21.40;;
21771;SDS011;11047;47.904;8.110;2022-08-19T14:14:45;25.83;;;23.17;;
21771;SDS011;11047;47.904;8.110;2022-08-19T14:17:12;23.73;;;21.42;;
21771;SDS011;11047;47.904;8.110;2022-08-19T14:19:40;23.65;;;21.30;;
21771;SDS011;11047;47.904;8.110;2022-08-19T14:22:07;22.95;;;20.40;;
21771;SDS011;11047;47.904;8.110;2022-08-19T14:24:35;23.00;;;20.88;;
21771;SDS011;11047;47.904;8.110;2022-08-19T14:27:04;27.88;;;25.08;;
21771;SDS011;11047;47.904;8.110;2022-08-19T14:29:31;25.85;;;20.92;;
21771;SDS011;11047;47.904;8.110;2022-08-19T14:31:58;21.77;;;19.55;;
21771;SDS011;11047;47.904;8.110;2022-08-19T14:34:25;21.83;;;19.73;;
21771;SDS011;11047;47.904;8.110;2022-08-19T14:36:52;21.10;;;19.00;;
21771;SDS011;11047;47.904;8.110;2022-08-19T14:39:19;20.20;;;18.27;;